Knickerbocker — WDC7987 — position and weather

sailwx.info

Track history (hours):
 
Tides and Currents Weather Stations Pressure Air Temp Water Temp Dewpoint Dewpoint Depression Visibility Wind Speed Wind Dir Waves Ship Positions

Knickerbocker

Owner: Christopher Corp., Newport, RI. More information available from US FCC via Universal Licensing System and Coast Guard Vessel Documentation Center.

Last reported at 2015-May-28 21:09 UTC. Time now 2015-May-29 06:17 UTC.
Position N 40°53' W 073°32'.

Length 36 m; draft 3.6 m.

Type: Pleasure craft. MMSI: 367079960.

Date/timePositionNaut miles runAvg speedWind from/ knotsBaromVisibWave heightAir tempDewpointWater temp
2015-May-28 21:09N 40°53' W 073°32'0 0.0
2015-May-28 13:30N 40°53' W 073°32'0 0.0
2015-May-28 11:09N 40°53' W 073°32'0 0.0
2015-May-28 10:27N 40°53' W 073°32'0 0.0
2015-May-28 09:21N 40°53' W 073°32'0 0.0
2015-May-28 08:30N 40°53' W 073°32'0 0.0
2015-May-28 06:33N 40°53' W 073°32'0 0.0
2015-May-28 05:18N 40°53' W 073°32'0 0.0
2015-May-27 19:33N 40°53' W 073°32'0 0.0
2015-May-27 18:06N 40°53' W 073°32'0 0.0
2015-May-27 17:12N 40°53' W 073°32'0 0.0
2015-May-27 13:21N 40°53' W 073°32'0 0.0
2015-May-27 12:15N 40°53' W 073°32'0 0.0
2015-May-27 11:21N 40°53' W 073°32'0 0.0
2015-May-27 08:15N 40°53' W 073°32'0 0.0
2015-May-27 07:30N 40°53' W 073°32'0 0.0
2015-May-27 05:30N 40°53' W 073°32'0 0.0
2015-May-27 04:12N 40°53' W 073°32'0 0.0
2015-May-27 03:33N 40°53' W 073°32'0 0.0
2015-May-27 02:33N 40°53' W 073°32'0 0.0
2015-May-26 10:33N 40°53' W 073°32'0 0.0
2015-May-26 07:33N 40°53' W 073°32'0 0.0
2015-May-26 06:33N 40°53' W 073°32'0 0.0
2015-May-26 05:33N 40°53' W 073°32'0 0.0
2015-May-26 04:24N 40°53' W 073°32'0 0.0
2015-May-26 03:03N 40°53' W 073°32'0 0.0
2015-May-26 02:09N 40°53' W 073°32'0 0.0
2015-May-25 14:15N 40°53' W 073°32'0 0.0
2015-May-25 13:24N 40°53' W 073°32'0 0.0
2015-May-25 12:21N 40°53' W 073°32'0 0.0
2015-May-25 11:27N 40°53' W 073°32'0 0.0
2015-May-25 10:33N 40°53' W 073°32'0 0.0
2015-May-25 09:33N 40°53' W 073°32'0 0.0
2015-May-25 08:33N 40°53' W 073°32'0 0.0
2015-May-25 07:21N 40°53' W 073°32'0 0.0
2015-May-25 06:27N 40°53' W 073°32'0 0.0
2015-May-25 05:15N 40°53' W 073°32'3 0.3
2015-May-24 19:28N 40°55' W 073°30'4 4.3
2015-May-24 18:33N 40°59' W 073°30'4 3.8
2015-May-24 17:33N 40°55' W 073°30'3 1.3
2015-May-24 15:15N 40°53' W 073°32'0 0.0
2015-May-24 13:33N 40°53' W 073°32'0 0.0
2015-May-24 11:33N 40°53' W 073°32'0 0.0
2015-May-24 10:33N 40°53' W 073°32'0 0.0
2015-May-24 09:33N 40°53' W 073°32'0 0.0
2015-May-24 08:33N 40°53' W 073°32'0 0.0
2015-May-24 07:33N 40°53' W 073°32'0 0.0
2015-May-24 06:33N 40°53' W 073°32'0 0.0
2015-May-24 05:33N 40°53' W 073°32'0 0.0
2015-May-24 04:33N 40°53' W 073°32'0 0.0
2015-May-24 03:33N 40°53' W 073°32'0 0.0
2015-May-24 02:33N 40°53' W 073°32'0 0.0
2015-May-24 01:33N 40°53' W 073°32'0 0.0
2015-May-24 00:33N 40°53' W 073°32'0 0.0
2015-May-22 12:33N 40°53' W 073°32'0 0.0
2015-May-22 11:30N 40°53' W 073°32'0 0.0
2015-May-22 07:07N 40°53' W 073°32'0 0.0
2015-May-22 06:33N 40°53' W 073°32'0 0.0
2015-May-22 04:09N 40°53' W 073°32'0 0.0
2015-May-22 03:33N 40°53' W 073°32'0 0.0
2015-May-22 02:33N 40°53' W 073°32'0 0.0
2015-May-22 01:19N 40°53' W 073°32'0 0.0
2015-May-21 13:28N 40°53' W 073°32'0 0.0
2015-May-20 14:17N 40°53' W 073°32'0 0.0
2015-May-20 08:33N 40°53' W 073°32'0 0.0
2015-May-20 07:28N 40°53' W 073°32'0 0.0
2015-May-20 06:27N 40°53' W 073°32'0 0.0
2015-May-20 04:23N 40°53' W 073°32'0 0.0
2015-May-20 01:09N 40°53' W 073°32'0 0.0
2015-May-20 00:26N 40°53' W 073°32'0 0.0
2015-May-19 23:32N 40°53' W 073°32'0 0.0
2015-May-19 22:33N 40°53' W 073°32'5 5.5
2015-May-19 21:33N 40°58' W 073°29'9 9.4
2015-May-19 20:33N 41°00' W 073°17'9 9.3
2015-May-19 19:33N 41°03' W 073°05'10 9.5
2015-May-19 18:33N 41°05' W 072°53'1010.0
2015-May-19 17:33N 41°08' W 072°40'1010.0
2015-May-19 16:33N 41°11' W 072°27'1211.8
2015-May-19 15:33N 41°14' W 072°12'1212.1
2015-May-19 14:33N 41°15' W 071°56'1211.6
2015-May-19 13:33N 41°18' W 071°41'1110.6
2015-May-19 12:33N 41°21' W 071°28'10 9.6
2015-May-19 11:34N 41°29' W 071°20'1 0.7
2015-May-19 10:31N 41°29' W 071°19'0 0.0
2015-May-19 09:31N 41°29' W 071°19'0 0.0
2015-May-19 08:28N 41°29' W 071°19'0 0.0
2015-May-19 07:31N 41°29' W 071°19'0 0.0
2015-May-19 06:31N 41°29' W 071°19'0 0.0
2015-May-19 05:31N 41°29' W 071°19'0 0.0
2015-May-19 04:31N 41°29' W 071°19'0 0.0
2015-May-19 03:31N 41°29' W 071°19'0 0.0
2015-May-19 02:31N 41°29' W 071°19'0 0.0
2015-May-19 01:25N 41°29' W 071°19'0 0.0
2015-May-19 00:19N 41°29' W 071°19'0 0.0
2015-May-18 23:31N 41°29' W 071°19'0 0.0
2015-May-18 22:31N 41°29' W 071°19'0 0.0
2015-May-18 21:31N 41°29' W 071°19'  
Track history (hours):
 
Tides and Currents Weather Stations Pressure Air Temp Water Temp Dewpoint Dewpoint Depression Visibility Wind Speed Wind Dir Waves Ship Positions

Knickerbocker

Owner: Christopher Corp., Newport, RI. More information available from US FCC via Universal Licensing System and Coast Guard Vessel Documentation Center.

Last reported at 2015-May-28 21:09 UTC. Time now 2015-May-29 06:17 UTC.
Position N 40°53' W 073°32'.

Length 36 m; draft 3.6 m.

Type: Pleasure craft. MMSI: 367079960.

Date/timePositionNaut miles runAvg speedWind from/ knotsBaromVisibWave heightAir tempDewpointWater temp
2015-May-28 21:09N 40°53' W 073°32'0 0.0
2015-May-28 13:30N 40°53' W 073°32'0 0.0
2015-May-28 11:09N 40°53' W 073°32'0 0.0
2015-May-28 10:27N 40°53' W 073°32'0 0.0
2015-May-28 09:21N 40°53' W 073°32'0 0.0
2015-May-28 08:30N 40°53' W 073°32'0 0.0
2015-May-28 06:33N 40°53' W 073°32'0 0.0
2015-May-28 05:18N 40°53' W 073°32'0 0.0
2015-May-27 19:33N 40°53' W 073°32'0 0.0
2015-May-27 18:06N 40°53' W 073°32'0 0.0
2015-May-27 17:12N 40°53' W 073°32'0 0.0
2015-May-27 13:21N 40°53' W 073°32'0 0.0
2015-May-27 12:15N 40°53' W 073°32'0 0.0
2015-May-27 11:21N 40°53' W 073°32'0 0.0
2015-May-27 08:15N 40°53' W 073°32'0 0.0
2015-May-27 07:30N 40°53' W 073°32'0 0.0
2015-May-27 05:30N 40°53' W 073°32'0 0.0
2015-May-27 04:12N 40°53' W 073°32'0 0.0
2015-May-27 03:33N 40°53' W 073°32'0 0.0
2015-May-27 02:33N 40°53' W 073°32'0 0.0
2015-May-26 10:33N 40°53' W 073°32'0 0.0
2015-May-26 07:33N 40°53' W 073°32'0 0.0
2015-May-26 06:33N 40°53' W 073°32'0 0.0
2015-May-26 05:33N 40°53' W 073°32'0 0.0
2015-May-26 04:24N 40°53' W 073°32'0 0.0
2015-May-26 03:03N 40°53' W 073°32'0 0.0
2015-May-26 02:09N 40°53' W 073°32'0 0.0
2015-May-25 14:15N 40°53' W 073°32'0 0.0
2015-May-25 13:24N 40°53' W 073°32'0 0.0
2015-May-25 12:21N 40°53' W 073°32'0 0.0
2015-May-25 11:27N 40°53' W 073°32'0 0.0
2015-May-25 10:33N 40°53' W 073°32'0 0.0
2015-May-25 09:33N 40°53' W 073°32'0 0.0
2015-May-25 08:33N 40°53' W 073°32'0 0.0
2015-May-25 07:21N 40°53' W 073°32'0 0.0
2015-May-25 06:27N 40°53' W 073°32'0 0.0
2015-May-25 05:15N 40°53' W 073°32'3 0.3
2015-May-24 19:28N 40°55' W 073°30'4 4.3
2015-May-24 18:33N 40°59' W 073°30'4 3.8
2015-May-24 17:33N 40°55' W 073°30'3 1.3
2015-May-24 15:15N 40°53' W 073°32'0 0.0
2015-May-24 13:33N 40°53' W 073°32'0 0.0
2015-May-24 11:33N 40°53' W 073°32'0 0.0
2015-May-24 10:33N 40°53' W 073°32'0 0.0
2015-May-24 09:33N 40°53' W 073°32'0 0.0
2015-May-24 08:33N 40°53' W 073°32'0 0.0
2015-May-24 07:33N 40°53' W 073°32'0 0.0
2015-May-24 06:33N 40°53' W 073°32'0 0.0
2015-May-24 05:33N 40°53' W 073°32'0 0.0
2015-May-24 04:33N 40°53' W 073°32'0 0.0
2015-May-24 03:33N 40°53' W 073°32'0 0.0
2015-May-24 02:33N 40°53' W 073°32'0 0.0
2015-May-24 01:33N 40°53' W 073°32'0 0.0
2015-May-24 00:33N 40°53' W 073°32'0 0.0
2015-May-22 12:33N 40°53' W 073°32'0 0.0
2015-May-22 11:30N 40°53' W 073°32'0 0.0
2015-May-22 07:07N 40°53' W 073°32'0 0.0
2015-May-22 06:33N 40°53' W 073°32'0 0.0
2015-May-22 04:09N 40°53' W 073°32'0 0.0
2015-May-22 03:33N 40°53' W 073°32'0 0.0
2015-May-22 02:33N 40°53' W 073°32'0 0.0
2015-May-22 01:19N 40°53' W 073°32'0 0.0
2015-May-21 13:28N 40°53' W 073°32'0 0.0
2015-May-20 14:17N 40°53' W 073°32'0 0.0
2015-May-20 08:33N 40°53' W 073°32'0 0.0
2015-May-20 07:28N 40°53' W 073°32'0 0.0
2015-May-20 06:27N 40°53' W 073°32'0 0.0
2015-May-20 04:23N 40°53' W 073°32'0 0.0
2015-May-20 01:09N 40°53' W 073°32'0 0.0
2015-May-20 00:26N 40°53' W 073°32'0 0.0
2015-May-19 23:32N 40°53' W 073°32'0 0.0
2015-May-19 22:33N 40°53' W 073°32'5 5.5
2015-May-19 21:33N 40°58' W 073°29'9 9.4
2015-May-19 20:33N 41°00' W 073°17'9 9.3
2015-May-19 19:33N 41°03' W 073°05'10 9.5
2015-May-19 18:33N 41°05' W 072°53'1010.0
2015-May-19 17:33N 41°08' W 072°40'1010.0
2015-May-19 16:33N 41°11' W 072°27'1211.8
2015-May-19 15:33N 41°14' W 072°12'1212.1
2015-May-19 14:33N 41°15' W 071°56'1211.6
2015-May-19 13:33N 41°18' W 071°41'1110.6
2015-May-19 12:33N 41°21' W 071°28'10 9.6
2015-May-19 11:34N 41°29' W 071°20'1 0.7
2015-May-19 10:31N 41°29' W 071°19'0 0.0
2015-May-19 09:31N 41°29' W 071°19'0 0.0
2015-May-19 08:28N 41°29' W 071°19'0 0.0
2015-May-19 07:31N 41°29' W 071°19'0 0.0
2015-May-19 06:31N 41°29' W 071°19'0 0.0
2015-May-19 05:31N 41°29' W 071°19'0 0.0
2015-May-19 04:31N 41°29' W 071°19'0 0.0
2015-May-19 03:31N 41°29' W 071°19'0 0.0
2015-May-19 02:31N 41°29' W 071°19'0 0.0
2015-May-19 01:25N 41°29' W 071°19'0 0.0
2015-May-19 00:19N 41°29' W 071°19'0 0.0
2015-May-18 23:31N 41°29' W 071°19'0 0.0
2015-May-18 22:31N 41°29' W 071°19'0 0.0
2015-May-18 21:31N 41°29' W 071°19'  

Dump ship's entire track history